Latest Weather Observations for Whyalla

IDS60801

Issued at 3:31 pm CST Saturday 28 May 2016 (issued every 30 minutes, with the page automatically refreshed every 10 minutes)

About weather observations | Map of weather stations | Latest weather observations for SA | Other Formats
Station Details ID: 018120 Name: WHYALLA AERO Lat: -33.05 Lon: 137.52 Height: 9.3 m
Data from the previous 72 hours. | See also: Recent months at Whyalla
Date/Time
CST
Temp
°C
App
Temp
°C
Dew
Point
Rel
Hum
%
Delta-T
°C
Wind Press
QNH
hPa
Press
MSL
hPa
Rain
since 9 am
mm
Dir
 
Spd
km/h
Gust
km/h
Spd
kts
Gust
kts
28/03:30pm 16.1 12.5 10.4 69 3.0 S 20 24 11 13 1016.8 1017.1 -
28/03:00pm 16.2 12.6 10.7 70 2.9 S 20 28 11 15 1016.9 1016.9 0.0
28/02:30pm 16.9 14.2 11.6 71 2.9 S 17 24 9 13 1016.8 1016.8 0.0
28/02:00pm 16.4 13.5 10.9 70 2.9 S 17 22 9 12 1016.8 1016.8 0.0
28/01:30pm 16.1 13.2 11.1 72 2.7 SSE 17 24 9 13 1017.0 1017.0 0.0
28/01:00pm 16.5 13.4 11.6 73 2.7 S 19 26 10 14 1017.2 1017.2 0.0
28/12:30pm 16.6 13.2 12.4 76 2.3 SSE 22 30 12 16 1017.2 1017.2 0.0
28/12:00pm 16.6 13.0 11.7 73 2.7 SSE 22 33 12 18 1017.1 1017.1 0.0
28/11:30am 15.6 11.6 11.8 78 2.1 S 24 30 13 16 1017.2 1017.2 0.0
28/11:00am 14.8 10.5 11.9 83 1.6 S 26 39 14 21 1017.3 1017.3 0.0
28/10:30am 15.1 11.5 11.7 80 1.8 SSW 22 32 12 17 1017.5 1017.5 0.0
28/10:00am 15.5 11.8 11.5 77 2.2 SSW 22 28 12 15 1017.4 1017.4 0.0
28/09:30am 15.0 11.6 11.4 79 1.9 SW 20 28 11 15 1017.2 1017.2 0.0
28/09:00am 13.7 10.7 10.7 82 1.6 SW 17 22 9 12 1016.8 1016.8 1.2
28/08:30am 12.4 9.4 10.5 88 1.0 WSW 17 22 9 12 1016.3 1016.3 1.2
28/08:00am 11.1 8.7 10.0 93 0.6 WSW 13 19 7 10 1016.1 1016.1 1.2
28/07:30am 10.4 7.5 9.5 94 0.4 WSW 15 19 8 10 1015.9 1015.9 1.2
28/07:00am 10.7 6.8 9.5 92 0.6 WSW 20 28 11 15 1015.7 1015.7 1.2
28/06:30am 10.7 6.7 9.1 90 0.8 W 20 28 11 15 1015.3 1015.3 1.2
28/06:00am 10.3 6.8 8.9 91 0.7 W 17 24 9 13 1014.9 1014.9 1.2
28/05:30am 10.0 6.8 8.6 91 0.7 WNW 15 22 8 12 1014.6 1014.6 1.2
28/05:00am 10.1 6.5 8.4 89 0.8 WNW 17 20 9 11 1014.2 1014.2 1.2
28/04:30am 10.1 6.0 8.0 87 1.0 WNW 19 22 10 12 1013.9 1013.9 1.2
28/04:00am 10.3 6.0 7.9 85 1.2 NW 20 26 11 14 1013.8 1013.8 1.2
28/03:30am 10.1 6.4 8.0 87 1.0 NW 17 20 9 11 1013.8 1013.8 1.2
28/03:00am 9.5 5.7 7.6 88 0.9 NNW 17 20 9 11 1013.7 1013.7 1.2
28/02:30am 10.1 6.0 7.9 86 1.1 NW 19 24 10 13 1013.8 1013.8 1.2
28/02:00am 10.3 6.6 8.1 86 1.1 NW 17 22 9 12 1013.7 1013.7 1.2
28/01:30am 9.9 6.2 8.0 88 0.9 NW 17 22 9 12 1013.8 1013.8 1.2
28/01:00am 9.6 5.8 7.7 88 0.9 NW 17 22 9 12 1013.9 1013.9 1.2
28/12:30am 9.7 6.0 7.8 88 0.9 NW 17 20 9 11 1014.1 1014.1 1.2
28/12:00am 10.2 6.5 8.0 86 1.1 NW 17 20 9 11 1014.3 1014.3 1.2
 
Date/Time
CST
Temp
°C
App
Temp
°C
Dew
Point
Rel
Hum
%
Delta-T
°C
Wind Press
QNH
hPa
Press
MSL
hPa
Rain
since 9 am
mm
Dir
 
Spd
km/h
Gust
km/h
Spd
kts
Gust
kts
27/11:30pm 10.5 6.4 7.9 84 1.3 WNW 19 26 10 14 1014.1 1014.1 1.2
27/11:00pm 10.7 6.7 8.1 84 1.3 WNW 19 22 10 12 1014.2 1014.2 1.2
27/10:30pm 10.6 6.5 8.0 84 1.3 WNW 19 24 10 13 1014.4 1014.4 1.2
27/10:00pm 10.5 6.8 8.1 85 1.2 WNW 17 22 9 12 1014.1 1014.1 1.2
27/09:30pm 10.6 7.0 8.2 85 1.2 NW 17 20 9 11 1014.1 1014.1 1.2
27/09:00pm 10.6 7.3 8.0 84 1.3 NW 15 19 8 10 1014.0 1014.0 1.2
27/08:30pm 11.0 8.1 8.1 82 1.4 NW 13 19 7 10 1013.8 1013.8 1.2
27/08:00pm 11.9 7.7 7.6 75 2.1 W 19 26 10 14 1013.4 1013.4 1.2
27/07:30pm 11.8 8.1 7.9 77 1.9 W 17 20 9 11 1013.1 1013.1 1.2
27/07:00pm 12.1 8.4 8.0 76 2.0 WNW 17 24 9 13 1012.9 1012.9 1.2
27/06:30pm 12.5 9.5 7.6 72 2.4 W 13 20 7 11 1012.8 1012.8 1.2
27/06:00pm 13.1 9.3 7.5 69 2.7 WSW 17 26 9 14 1012.5 1012.5 1.2
27/05:30pm 14.0 7.6 7.1 63 3.4 W 30 41 16 22 1012.0 1012.0 1.2
27/05:00pm 14.1 7.5 7.6 65 3.2 WSW 32 48 17 26 1011.8 1011.8 1.2
27/04:36pm 15.1 8.0 5.6 53 4.5 WSW 32 50 17 27 1011.4 1011.4 1.2
27/04:30pm 15.2 7.4 5.1 51 4.8 WSW 35 50 19 27 1011.2 1011.2 1.2
27/04:00pm 16.3 8.1 4.7 46 5.5 WSW 37 57 20 31 1010.7 1010.7 1.2
27/03:44pm 16.5 9.2 5.5 48 5.3 WSW 33 56 18 30 1010.7 1010.7 1.2
27/03:30pm 16.0 9.6 7.0 55 4.4 W 30 41 16 22 1010.7 1010.7 1.2
27/03:08pm 15.3 8.3 6.8 57 4.2 WSW 33 56 18 30 1010.6 1010.6 1.2
27/03:00pm 15.8 10.6 8.8 63 3.6 WSW 26 37 14 20 1010.6 1010.6 1.2
27/02:30pm 14.5 11.8 11.8 84 1.5 WNW 17 22 9 12 1010.6 1010.6 1.2
27/02:00pm 13.3 9.3 10.5 83 1.5 W 22 32 12 17 1010.3 1010.3 1.2
27/01:30pm 13.6 8.8 11.8 89 1.0 W 28 37 15 20 1010.8 1010.8 1.0
27/01:00pm 13.4 9.4 11.8 90 0.9 W 24 35 13 19 1010.8 1010.8 0.8
27/12:55pm 13.3 9.2 11.5 89 1.0 W 24 35 13 19 1011.0 1011.0 0.8
27/12:35pm 13.5 7.5 10.7 83 1.5 W 33 54 18 29 1011.1 1011.1 0.0
27/12:33pm 13.7 7.5 10.1 79 1.9 W 33 54 18 29 1011.0 1011.0 0.0
27/12:30pm 14.5 8.3 9.5 72 2.6 W 32 54 17 29 1010.7 1010.7 0.0
27/12:09pm 16.8 10.1 8.2 57 4.4 WNW 33 52 18 28 1010.6 1010.6 0.0
27/12:00pm 17.5 10.9 7.8 53 4.9 WNW 32 46 17 25 1010.6 1010.6 0.0
27/11:30am 17.8 11.6 9.2 57 4.5 WNW 32 43 17 23 1011.4 1011.4 0.0
27/11:00am 17.4 12.0 10.8 65 3.5 WNW 30 39 16 21 1011.8 1011.8 0.0
27/10:30am 16.4 11.7 10.5 68 3.1 WNW 26 37 14 20 1012.1 1012.1 0.0
27/10:00am 15.7 11.6 11.3 75 2.4 WNW 24 32 13 17 1012.4 1012.4 0.0
27/09:30am 14.8 10.6 11.0 78 2.0 WNW 24 33 13 18 1012.6 1012.6 0.0
27/09:00am 13.9 10.3 10.7 81 1.7 WNW 20 33 11 18 1012.6 1012.6 0.0
27/08:30am 13.2 9.7 10.2 82 1.6 WNW 19 26 10 14 1012.6 1012.6 0.0
27/08:00am 12.1 9.4 10.2 88 1.0 NW 15 19 8 10 1012.4 1012.4 0.0
27/07:30am 12.0 8.5 10.2 89 0.9 WNW 19 24 10 13 1012.4 1012.4 0.0
27/07:00am 11.3 9.7 10.2 93 0.6 NNW 9 15 5 8 1012.4 1012.4 0.0
27/06:30am 10.8 8.7 9.9 94 0.5 NNW 11 15 6 8 1012.3 1012.3 0.0
27/06:00am 10.7 7.4 9.6 93 0.6 NW 17 20 9 11 1012.1 1012.1 0.0
27/05:30am 11.4 8.2 10.0 91 0.7 NW 17 24 9 13 1012.1 1012.1 0.0
27/05:00am 11.5 8.3 9.9 90 0.8 NW 17 24 9 13 1011.9 1011.9 0.0
27/04:30am 10.5 7.9 9.4 93 0.5 NNW 13 17 7 9 1012.0 1012.0 0.0
27/04:00am 10.8 8.2 9.4 91 0.7 NW 13 17 7 9 1012.0 1012.0 0.0
27/03:30am 11.2 7.3 9.6 90 0.8 NW 20 26 11 14 1012.2 1012.2 0.0
27/03:00am 10.7 7.8 9.5 92 0.6 NNW 15 17 8 9 1012.5 1012.5 0.0
27/02:30am 11.1 8.6 9.7 91 0.7 NNW 13 17 7 9 1012.7 1012.7 0.0
27/02:00am 10.8 8.7 9.6 92 0.6 NNE 11 15 6 8 1012.9 1012.9 0.0
27/01:30am 10.1 7.9 9.3 95 0.4 N 11 13 6 7 1012.8 1012.8 0.0
27/01:00am 9.0 7.4 8.6 97 0.2 NNW 7 11 4 6 1013.0 1013.0 0.0
27/12:30am 9.2 6.5 8.9 98 0.1 NW 13 15 7 8 1013.4 1013.4 0.0
27/12:00am 9.6 6.9 9.0 96 0.3 NNW 13 13 7 7 1013.3 1013.3 0.0
 
Date/Time
CST
Temp
°C
App
Temp
°C
Dew
Point
Rel
Hum
%
Delta-T
°C
Wind Press
QNH
hPa
Press
MSL
hPa
Rain
since 9 am
mm
Dir
 
Spd
km/h
Gust
km/h
Spd
kts
Gust
kts
26/11:30pm 9.6 7.3 9.1 97 0.2 NNW 11 13 6 7 1013.4 1013.4 0.0
26/11:00pm 10.0 8.2 9.4 96 0.3 NNW 9 11 5 6 1013.7 1013.7 0.0
26/10:30pm 10.5 8.8 9.9 96 0.3 NNW 9 11 5 6 1013.6 1013.6 0.0
26/10:00pm 10.9 9.8 10.0 94 0.5 NW 6 9 3 5 1013.7 1013.7 0.0
26/09:30pm 11.2 10.2 10.3 94 0.5 NW 6 9 3 5 1013.8 1013.8 0.0
26/09:00pm 12.0 11.0 10.9 93 0.6 NW 7 11 4 6 1013.7 1013.7 0.0
26/08:30pm 11.6 10.5 10.7 94 0.5 NNW 7 9 4 5 1013.9 1013.9 0.0
26/08:00pm 11.9 10.5 10.8 93 0.6 NW 9 11 5 6 1013.8 1013.8 0.0
26/07:30pm 12.2 11.3 10.8 91 0.7 NNW 6 7 3 4 1013.2 1013.2 0.0
26/07:00pm 12.2 11.2 10.3 88 1.0 NW 6 9 3 5 1012.8 1012.8 0.0
26/06:30pm 12.5 11.3 10.4 87 1.1 NNW 7 7 4 4 1012.5 1012.5 0.0
26/06:00pm 12.8 12.9 10.3 85 1.3 CALM 0 0 0 0 1012.1 1012.1 0.0
26/05:30pm 14.6 13.6 10.2 75 2.3 ESE 6 7 3 4 1011.7 1011.7 0.0
26/05:00pm 15.3 13.7 10.3 72 2.6 SE 9 13 5 7 1011.4 1011.4 0.0
26/04:30pm 16.0 14.9 10.5 70 2.9 SE 7 9 4 5 1011.7 1011.7 0.0
26/04:00pm 16.2 14.2 10.1 67 3.2 SSE 11 17 6 9 1011.4 1011.4 0.0
26/03:30pm 16.9 14.2 10.3 65 3.5 S 15 20 8 11 1011.4 1011.4 0.0
26/03:00pm 16.3 13.3 10.8 70 2.9 SSE 17 26 9 14 1010.9 1010.9 0.0
26/02:30pm 17.4 14.4 10.8 65 3.5 SSE 17 22 9 12 1010.5 1010.5 0.0
26/02:00pm 17.1 13.9 9.8 62 3.8 SSE 17 24 9 13 1010.4 1010.4 0.0
26/01:30pm 16.9 14.1 10.1 64 3.6 SSE 15 22 8 12 1010.6 1010.6 0.0
26/01:00pm 18.0 16.0 11.6 66 3.5 SSE 13 20 7 11 1010.8 1010.8 0.0
26/12:30pm 16.7 12.9 9.1 61 3.9 S 19 24 10 13 1011.0 1011.0 0.0
26/12:00pm 18.0 15.0 9.4 57 4.5 SW 15 20 8 11 1011.1 1011.1 0.0
26/11:30am 17.1 13.9 10.0 63 3.7 SSW 17 26 9 14 1011.1 1011.1 0.0
26/11:00am 17.2 13.9 11.0 67 3.3 SW 19 24 10 13 1011.4 1011.4 0.0
26/10:30am 16.4 13.9 10.9 70 2.9 SW 15 22 8 12 1011.5 1011.5 0.0
26/10:00am 15.7 12.5 11.1 74 2.5 WSW 19 24 10 13 1011.7 1011.7 0.0
26/09:30am 15.2 12.2 11.8 80 1.8 WSW 19 24 10 13 1011.3 1011.3 0.0
26/09:00am 14.5 12.2 11.8 84 1.5 WSW 15 20 8 11 1011.1 1011.1 4.4
26/08:30am 13.2 11.3 11.9 92 0.7 W 13 17 7 9 1010.7 1010.7 4.4
26/08:00am 11.5 10.1 11.0 97 0.3 NW 9 11 5 6 1010.8 1010.8 4.4
26/07:30am 10.8 9.3 10.5 98 0.2 WNW 9 11 5 6 1010.5 1010.5 4.4
26/07:00am 11.5 10.5 10.9 96 0.3 WSW 7 11 4 6 1010.2 1010.2 4.4
26/06:30am 11.9 9.9 11.4 97 0.3 W 13 17 7 9 1009.8 1009.8 4.2
26/06:00am 11.5 9.7 11.0 97 0.3 W 11 15 6 8 1009.8 1009.8 4.2
26/05:30am 11.8 9.8 11.5 98 0.2 W 13 15 7 8 1009.5 1009.5 4.2
26/05:00am 11.9 10.6 11.3 96 0.3 WSW 9 11 5 6 1009.1 1009.1 4.2
26/04:30am 12.5 11.0 11.9 96 0.3 WSW 11 15 6 8 1009.0 1009.0 4.2
26/04:00am 13.4 12.0 12.3 93 0.6 WSW 11 17 6 9 1008.6 1008.6 4.2
26/03:30am 14.4 11.8 13.1 92 0.7 WSW 19 26 10 14 1008.6 1008.6 4.2
26/03:00am 15.3 12.5 14.2 93 0.6 W 22 30 12 16 1008.3 1008.3 4.2
26/02:30am 14.8 12.6 14.3 97 0.3 NW 19 24 10 13 1007.9 1007.9 4.2
26/02:00am 14.9 12.5 14.4 97 0.3 NW 20 24 11 13 1007.7 1007.7 4.2
26/01:30am 14.7 13.2 14.2 97 0.3 NW 15 19 8 10 1007.7 1007.7 4.2
26/01:00am 14.7 13.2 14.2 97 0.3 NNW 15 20 8 11 1007.7 1007.7 4.2
26/12:30am 15.1 14.1 14.5 96 0.3 NW 13 20 7 11 1007.9 1007.9 4.2
26/12:00am 14.3 12.7 14.0 98 0.2 NNW 15 20 8 11 1007.9 1007.9 4.2
 
Date/Time
CST
Temp
°C
App
Temp
°C
Dew
Point
Rel
Hum
%
Delta-T
°C
Wind Press
QNH
hPa
Press
MSL
hPa
Rain
since 9 am
mm
Dir
 
Spd
km/h
Gust
km/h
Spd
kts
Gust
kts
25/11:30pm 14.3 11.7 13.8 97 0.3 N 20 28 11 15 1007.7 1007.7 4.2
25/11:00pm 14.5 12.0 14.0 97 0.3 NNW 20 30 11 16 1007.9 1007.9 4.2
25/10:30pm 14.1 10.7 13.6 97 0.3 NNW 24 30 13 16 1008.1 1008.1 4.2
25/10:00pm 13.9 10.9 13.6 98 0.2 NNW 22 28 12 15 1008.4 1008.4 4.2
25/09:30pm 13.8 11.0 13.3 97 0.3 NNW 20 28 11 15 1008.4 1008.4 4.0
25/09:00pm 13.6 10.8 13.1 97 0.3 N 20 28 11 15 1008.5 1008.5 4.0
25/08:30pm 13.5 10.8 13.0 97 0.3 NNW 19 24 10 13 1008.6 1008.6 4.0
25/08:00pm 13.3 10.3 12.7 96 0.3 NNW 20 24 11 13 1008.4 1008.4 3.8
25/07:30pm 13.3 9.9 12.5 95 0.4 NNW 22 28 12 15 1008.5 1008.5 3.8
25/07:00pm 13.4 9.2 12.5 94 0.5 NNW 26 39 14 21 1008.1 1008.1 3.8
25/06:51pm 13.3 9.1 12.4 94 0.5 NNW 26 33 14 18 1008.2 1008.2 3.8
25/06:30pm 13.4 8.9 12.6 95 0.4 NNW 28 37 15 20 1008.3 1008.3 3.8
25/06:26pm 13.4 8.9 12.6 95 0.4 NNW 28 39 15 21 1008.4 1008.4 3.8
25/06:16pm 13.4 8.9 12.6 95 0.4 NNW 28 46 15 25 1008.3 1008.3 3.8
25/06:00pm 13.4 9.7 12.6 95 0.4 NNW 24 32 13 17 1008.4 1008.4 3.8
25/05:30pm 13.1 11.0 12.5 96 0.3 NW 15 20 8 11 1007.6 1007.6 3.8
25/05:00pm 13.1 10.2 12.3 95 0.4 N 19 28 10 15 1007.0 1007.0 3.8
25/04:30pm 13.0 8.4 12.4 96 0.3 N 28 35 15 19 1006.8 1006.8 3.8
25/04:00pm 12.9 8.3 12.4 97 0.3 N 28 41 15 22 1008.2 1008.2 3.2

Other Formats:

Comma delimited format used in spreadsheet applications
http://www.bom.gov.au/fwo/IDS60801/IDS60801.95664.axf

JavaScript Object Notation format (JSON) in row-major order
http://www.bom.gov.au/fwo/IDS60801/IDS60801.95664.json